Time;durP1;ratioP1;P1;durP2;ratioP2;P2;SDS_P1;SDS_P2;PMS_P1;PMS_P2;Temp;Humidity;BMP_temperature;BMP_pressure;BME280_temperature;BME280_humidity;BME280_pressure;Samples;Min_cycle;Max_cycle;Signal;HPM_P1;HPM_P2
2022/01/02 00:01:00;;;;;;;5.72;2.45;;;11.80;99.90;;;;;;5040964;28;20042;-82
2022/01/02 00:03:33;;;;;;;8.02;2.45;;;11.50;99.90;;;;;;5042439;28;20563;-82
2022/01/02 00:06:02;;;;;;;6.25;2.50;;;11.60;99.90;;;;;;5042894;28;20506;-82
2022/01/02 00:08:31;;;;;;;5.40;2.28;;;11.50;99.90;;;;;;5026364;28;20114;-82
2022/01/02 00:10:59;;;;;;;6.05;2.08;;;11.50;99.90;;;;;;5044916;28;20395;-82
2022/01/02 00:13:33;;;;;;;5.63;2.65;;;11.40;99.90;;;;;;5040559;28;20447;-82
2022/01/02 00:16:05;;;;;;;5.78;2.45;;;11.50;99.90;;;;;;5037067;28;20496;-82
2022/01/02 00:18:34;;;;;;;5.78;2.65;;;11.90;99.90;;;;;;5042065;28;20517;-83
2022/01/02 00:21:03;;;;;;;6.75;2.40;;;11.50;99.90;;;;;;5042322;28;20048;-82
2022/01/02 00:23:32;;;;;;;5.82;2.72;;;11.50;99.90;;;;;;5025263;28;20064;-82
2022/01/02 00:26:04;;;;;;;8.90;2.78;;;11.60;99.90;;;;;;5036524;28;20038;-82
2022/01/02 00:28:32;;;;;;;5.38;2.90;;;11.40;99.90;;;;;;5042561;28;20059;-83
2022/01/02 00:30:58;;;;;;;4.50;2.25;;;12.00;99.90;;;;;;5042299;28;20052;-82
2022/01/02 00:33:25;;;;;;;8.02;2.92;;;11.50;99.90;;;;;;5042898;28;20510;-82
2022/01/02 00:35:51;;;;;;;5.85;2.90;;;11.90;99.90;;;;;;5041585;28;20044;-83
2022/01/02 00:38:22;;;;;;;4.97;2.17;;;11.50;99.90;;;;;;5042030;28;20049;-83
2022/01/02 00:40:50;;;;;;;5.25;2.22;;;11.50;99.90;;;;;;5045459;28;20046;-82
2022/01/02 00:43:25;;;;;;;5.20;2.03;;;11.50;99.90;;;;;;5022405;28;20049;-82
2022/01/02 00:45:52;;;;;;;4.45;2.88;;;11.70;99.90;;;;;;5025115;28;20084;-82
2022/01/02 00:48:26;;;;;;;4.50;2.05;;;11.50;99.90;;;;;;5042253;28;20045;-82
2022/01/02 00:51:00;;;;;;;6.75;2.80;;;11.70;99.90;;;;;;5026628;28;20052;-82
2022/01/02 00:53:33;;;;;;;5.63;2.70;;;11.50;99.90;;;;;;5038375;28;20092;-82
2022/01/02 00:56:00;;;;;;;5.25;2.42;;;11.80;99.90;;;;;;5034432;28;20045;-82
2022/01/02 00:58:34;;;;;;;6.57;2.35;;;11.40;99.90;;;;;;5041781;28;20044;-83
2022/01/02 01:01:09;;;;;;;6.18;2.83;;;11.40;99.90;;;;;;5015653;28;20073;-82
2022/01/02 01:03:39;;;;;;;5.03;2.25;;;11.40;99.90;;;;;;5041282;28;20049;-83
2022/01/02 01:06:05;;;;;;;5.03;2.60;;;11.70;99.90;;;;;;5039239;28;20041;-82
2022/01/02 01:08:35;;;;;;;9.90;3.00;;;11.40;99.90;;;;;;5027298;28;20045;-82
2022/01/02 01:11:07;;;;;;;9.88;3.20;;;11.50;99.90;;;;;;5034367;28;20037;-82
2022/01/02 01:13:34;;;;;;;6.47;2.70;;;11.50;99.90;;;;;;5042084;28;20509;-82
2022/01/02 01:16:01;;;;;;;7.55;2.92;;;11.50;99.90;;;;;;5026561;28;20075;-83
2022/01/02 01:18:26;;;;;;;5.75;2.63;;;11.50;99.90;;;;;;5044984;28;20060;-82
2022/01/02 01:20:53;;;;;;;7.35;2.97;;;11.90;99.90;;;;;;5042688;28;20044;-82
2022/01/02 01:23:19;;;;;;;10.27;2.80;;;11.60;99.90;;;;;;5041398;28;20056;-83
2022/01/02 01:25:46;;;;;;;10.43;3.00;;;11.60;99.90;;;;;;5041275;28;20038;-82
2022/01/02 01:28:13;;;;;;;11.85;3.08;;;11.50;99.90;;;;;;5044678;28;20044;-83
2022/01/02 01:30:39;;;;;;;7.78;2.38;;;11.50;99.90;;;;;;5043985;28;20041;-82
2022/01/02 01:33:05;;;;;;;12.40;3.40;;;11.50;99.90;;;;;;5041820;28;20095;-83
2022/01/02 01:35:31;;;;;;;7.38;3.45;;;12.30;99.90;;;;;;5040999;28;20446;-83
2022/01/02 01:37:56;;;;;;;11.45;3.22;;;11.50;99.90;;;;;;5041655;28;20099;-82
2022/01/02 01:40:22;;;;;;;7.95;3.83;;;11.60;99.90;;;;;;5041980;28;20115;-82
2022/01/02 01:43:01;;;;;;;9.77;2.83;;;11.70;99.90;;;;;;5044097;28;20403;-82
2022/01/02 01:45:28;;;;;;;10.30;3.42;;;11.50;99.90;;;;;;5040567;28;20495;-82
2022/01/02 01:48:04;;;;;;;6.88;3.20;;;11.60;99.90;;;;;;5041005;28;20041;-82
2022/01/02 01:50:31;;;;;;;;;;;11.60;99.90;;;;;;5044565;28;20040;-83
2022/01/02 01:52:57;;;;;;;7.40;3.65;;;11.50;99.90;;;;;;5043268;28;20335;-82
2022/01/02 01:55:22;;;;;;;11.13;3.60;;;11.50;99.90;;;;;;5041903;28;20511;-82
2022/01/02 01:57:51;;;;;;;6.43;3.22;;;11.60;99.90;;;;;;5040406;28;20029;-82
2022/01/02 02:00:19;;;;;;;9.10;3.83;;;11.60;99.90;;;;;;5043892;28;20033;-82
2022/01/02 02:02:45;;;;;;;9.98;3.60;;;11.60;99.90;;;;;;5043108;28;20055;-82
2022/01/02 02:05:12;;;;;;;6.45;3.35;;;11.80;99.90;;;;;;5041077;28;20117;-82
2022/01/02 02:07:42;;;;;;;7.68;3.90;;;11.70;99.90;;;;;;5023282;28;20438;-83
2022/01/02 02:13:12;;;;;;;12.32;4.97;;;11.50;99.90;;;;;;4935042;29;20039;-82
2022/01/02 02:15:38;;;;;;;10.63;3.65;;;11.60;99.90;;;;;;4944420;29;20430;-82
2022/01/02 02:18:04;;;;;;;6.13;3.95;;;11.50;99.90;;;;;;4942613;29;20466;-82
2022/01/02 02:20:32;;;;;;;10.88;4.43;;;11.50;99.90;;;;;;4940393;29;20509;-82
2022/01/02 02:23:00;;;;;;;9.60;4.13;;;11.60;99.90;;;;;;4927532;29;20094;-82
2022/01/02 02:25:31;;;;;;;11.68;4.30;;;11.70;99.90;;;;;;4947086;29;20060;-82
2022/01/02 02:27:59;;;;;;;10.90;4.03;;;11.50;99.90;;;;;;4945736;29;20046;-82
2022/01/02 02:30:27;;;;;;;7.50;4.40;;;11.40;99.90;;;;;;4940543;29;20077;-83
2022/01/02 02:32:58;;;;;;;9.98;4.65;;;11.40;99.90;;;;;;4925081;29;20051;-83
2022/01/02 02:35:25;;;;;;;7.95;3.92;;;11.40;99.90;;;;;;4943914;29;20035;-83
2022/01/02 02:37:51;;;;;;;14.65;6.00;;;11.40;99.90;;;;;;4949297;29;20054;-83
2022/01/02 02:40:20;;;;;;;7.70;3.63;;;11.30;99.90;;;;;;4943131;28;20047;-83
2022/01/02 02:42:50;;;;;;;5.75;3.58;;;11.30;99.90;;;;;;4944322;28;20083;-83
2022/01/02 02:51:06;;;;;;;12.25;3.85;;;11.40;99.90;;;;;;5039512;28;20037;-83
2022/01/02 02:53:41;;;;;;;6.32;3.83;;;11.30;99.90;;;;;;5031608;28;20038;-83
2022/01/02 02:56:23;;;;;;;5.75;3.17;;;11.20;99.90;;;;;;5041280;28;20500;-83
2022/01/02 02:58:52;;;;;;;9.30;4.03;;;11.60;99.90;;;;;;5033530;28;20044;-83
2022/01/02 03:01:19;;;;;;;7.68;3.75;;;11.30;99.90;;;;;;5022027;28;20045;-84
2022/01/02 03:03:46;;;;;;;10.15;4.32;;;11.60;99.90;;;;;;5039332;28;20111;-83
2022/01/02 03:06:13;;;;;;;9.02;4.05;;;11.20;99.90;;;;;;5022137;28;20049;-84
2022/01/02 03:08:41;;;;;;;7.35;3.78;;;11.20;99.90;;;;;;5022194;28;20041;-83
2022/01/02 03:11:09;;;;;;;7.90;4.30;;;11.80;99.90;;;;;;5039740;28;20108;-83
2022/01/02 03:13:36;;;;;;;8.57;3.67;;;11.20;99.90;;;;;;5041453;28;20088;-83
2022/01/02 03:16:02;;;;;;;9.85;4.30;;;11.20;99.90;;;;;;5040244;28;20069;-83
2022/01/02 03:18:27;;;;;;;7.63;3.45;;;11.20;99.90;;;;;;5040084;28;20088;-83
2022/01/02 03:20:53;;;;;;;6.45;3.60;;;11.10;99.90;;;;;;5022219;28;20055;-83
2022/01/02 03:23:19;;;;;;;8.85;3.90;;;11.80;99.90;;;;;;5043377;28;20076;-83
2022/01/02 03:25:44;;;;;;;6.20;3.85;;;11.10;99.90;;;;;;5042494;28;20095;-83
2022/01/02 03:28:10;;;;;;;10.25;4.05;;;11.20;99.90;;;;;;5022022;28;20108;-83
2022/01/02 03:30:36;;;;;;;11.43;4.38;;;11.10;99.90;;;;;;5039517;28;20191;-83
2022/01/02 03:33:02;;;;;;;9.70;4.00;;;11.60;99.90;;;;;;5040915;28;20116;-83
2022/01/02 03:35:28;;;;;;;10.77;5.07;;;11.30;99.90;;;;;;5036294;28;20451;-83
2022/01/02 03:37:54;;;;;;;8.18;4.15;;;11.20;99.90;;;;;;5042258;28;20041;-84
2022/01/02 03:40:20;;;;;;;9.40;4.13;;;11.00;99.90;;;;;;5031769;28;20050;-84
2022/01/02 03:42:46;;;;;;;7.63;3.83;;;11.10;99.90;;;;;;5037807;28;20090;-83
2022/01/02 03:45:12;;;;;;;6.53;3.80;;;11.70;99.90;;;;;;5022761;28;20079;-83
2022/01/02 03:47:38;;;;;;;8.63;3.90;;;11.60;99.90;;;;;;5018321;28;20052;-84
2022/01/02 03:50:04;;;;;;;11.85;4.15;;;11.40;99.90;;;;;;5034686;28;20041;-84
2022/01/02 03:52:30;;;;;;;7.75;3.50;;;11.00;99.90;;;;;;5042922;28;20037;-83
2022/01/02 03:54:57;;;;;;;7.72;3.63;;;11.10;99.90;;;;;;5022555;28;20395;-83
2022/01/02 03:57:23;;;;;;;6.97;4.00;;;11.00;99.90;;;;;;5050446;28;20076;-83
2022/01/02 03:59:49;;;;;;;7.93;3.75;;;11.00;99.90;;;;;;5025089;28;20076;-83
2022/01/02 04:02:15;;;;;;;6.85;4.03;;;11.60;99.90;;;;;;5043951;28;20379;-84
2022/01/02 04:04:41;;;;;;;6.32;4.47;;;11.00;99.90;;;;;;5042421;28;20495;-84
2022/01/02 04:07:06;;;;;;;8.68;4.10;;;11.70;99.90;;;;;;5042853;28;20033;-84
2022/01/02 04:09:32;;;;;;;9.05;4.18;;;11.00;99.90;;;;;;5025842;28;20041;-84
2022/01/02 04:11:58;;;;;;;7.03;3.78;;;10.80;99.90;;;;;;5041590;28;20087;-83
2022/01/02 04:14:24;;;;;;;11.43;4.38;;;11.50;99.90;;;;;;5042860;28;20419;-83
2022/01/02 04:16:50;;;;;;;8.75;4.15;;;11.10;99.90;;;;;;5026339;28;20423;-83
2022/01/02 04:19:15;;;;;;;8.40;4.07;;;11.50;99.90;;;;;;5011439;28;20041;-84
2022/01/02 04:21:41;;;;;;;10.15;4.43;;;10.80;99.90;;;;;;5044167;28;20041;-84
2022/01/02 04:24:07;;;;;;;10.35;4.93;;;11.20;99.90;;;;;;5024523;28;20510;-84
2022/01/02 04:26:33;;;;;;;7.18;4.68;;;11.30;99.90;;;;;;5042288;28;20038;-84
2022/01/02 04:28:58;;;;;;;8.68;5.30;;;11.00;99.90;;;;;;5043895;28;20113;-84
2022/01/02 04:31:24;;;;;;;12.35;4.97;;;11.10;99.90;;;;;;5045678;28;20053;-82
2022/01/02 04:33:50;;;;;;;13.38;5.03;;;11.20;99.90;;;;;;5027919;28;20063;-83
2022/01/02 04:36:16;;;;;;;10.85;5.07;;;11.20;99.90;;;;;;5042564;28;20396;-84
2022/01/02 04:38:42;;;;;;;12.52;5.43;;;11.60;99.90;;;;;;5041843;28;20052;-83
2022/01/02 04:41:08;;;;;;;7.97;4.22;;;11.40;99.90;;;;;;5043523;28;20103;-83
2022/01/02 04:43:34;;;;;;;10.52;4.60;;;11.20;99.90;;;;;;5020703;28;20052;-83
2022/01/02 04:46:00;;;;;;;7.97;4.43;;;11.70;99.90;;;;;;5045390;28;20045;-83
2022/01/02 04:48:26;;;;;;;7.35;4.18;;;11.50;99.90;;;;;;5039759;28;20038;-83
2022/01/02 04:50:51;;;;;;;8.15;4.10;;;11.60;99.90;;;;;;5039196;28;20034;-84
2022/01/02 04:53:19;;;;;;;11.90;4.43;;;11.10;99.90;;;;;;5035323;28;20140;-84
2022/01/02 04:55:45;;;;;;;8.73;4.15;;;11.10;99.90;;;;;;5045506;28;20036;-84
2022/01/02 04:58:12;;;;;;;7.97;3.67;;;11.10;99.90;;;;;;5044673;28;20445;-83
2022/01/02 05:00:37;;;;;;;8.65;4.50;;;11.70;99.90;;;;;;5023590;28;20115;-83
2022/01/02 05:03:03;;;;;;;7.10;4.28;;;11.30;99.90;;;;;;5042226;28;20045;-84
2022/01/02 05:05:29;;;;;;;9.50;4.20;;;11.10;99.90;;;;;;5023643;28;20060;-83
2022/01/02 05:07:55;;;;;;;8.40;3.40;;;11.10;99.90;;;;;;5010723;28;20040;-83
2022/01/02 05:10:20;;;;;;;9.57;4.18;;;11.10;99.90;;;;;;5044817;28;20033;-83
2022/01/02 05:12:46;;;;;;;7.88;4.40;;;11.60;99.90;;;;;;5042592;28;20422;-83
2022/01/02 05:15:12;;;;;;;10.68;4.20;;;11.70;99.90;;;;;;5041684;28;20030;-83
2022/01/02 05:17:37;;;;;;;9.25;4.22;;;11.40;99.90;;;;;;5041469;28;20042;-83
2022/01/02 05:20:04;;;;;;;6.78;3.65;;;11.30;99.90;;;;;;5040785;28;20049;-83
2022/01/02 05:22:30;;;;;;;9.43;4.35;;;11.20;99.90;;;;;;5024062;28;20431;-83
2022/01/02 05:24:56;;;;;;;9.15;4.78;;;11.20;99.90;;;;;;5023414;28;20048;-83
2022/01/02 05:27:21;;;;;;;8.38;4.82;;;11.20;99.90;;;;;;5041570;28;20456;-83
2022/01/02 05:29:47;;;;;;;8.10;4.70;;;11.60;99.90;;;;;;5041052;28;20052;-83
2022/01/02 05:32:13;;;;;;;10.30;4.35;;;11.80;99.90;;;;;;5042723;28;20045;-83
2022/01/02 05:34:38;;;;;;;9.82;4.40;;;11.20;99.90;;;;;;5039624;28;20039;-83
2022/01/02 05:37:04;;;;;;;7.13;4.57;;;11.30;99.90;;;;;;5024504;28;20037;-83
2022/01/02 05:39:30;;;;;;;11.55;4.63;;;11.80;99.90;;;;;;5041091;28;20053;-83
2022/01/02 05:41:56;;;;;;;11.55;4.65;;;11.50;99.90;;;;;;5046555;28;20384;-82
2022/01/02 05:44:21;;;;;;;5.20;3.03;;;11.70;99.90;;;;;;5032780;28;20403;-83
2022/01/02 05:46:47;;;;;;;9.02;3.42;;;11.80;99.90;;;;;;5041298;28;20037;-83
2022/01/02 05:49:13;;;;;;;10.20;3.50;;;11.30;99.90;;;;;;5042030;28;20041;-82
2022/01/02 05:51:39;;;;;;;8.75;3.50;;;11.70;99.90;;;;;;5040784;28;20084;-83
2022/01/02 05:54:04;;;;;;;9.75;2.88;;;11.80;99.90;;;;;;5041652;28;20049;-82
2022/01/02 05:56:31;;;;;;;5.32;2.67;;;11.10;99.90;;;;;;5040351;28;20041;-83
2022/01/02 05:58:57;;;;;;;8.63;3.03;;;11.20;99.90;;;;;;5040754;28;20042;-82
2022/01/02 06:01:23;;;;;;;9.45;3.53;;;11.60;99.90;;;;;;5040309;28;20094;-83
2022/01/02 06:03:49;;;;;;;9.45;3.35;;;11.60;99.90;;;;;;5037023;28;20127;-82
2022/01/02 06:06:15;;;;;;;8.13;3.05;;;11.60;99.90;;;;;;5040569;28;20088;-83
2022/01/02 06:08:40;;;;;;;6.45;3.10;;;11.30;99.90;;;;;;5042437;28;20507;-82
2022/01/02 06:11:06;;;;;;;6.40;2.67;;;11.40;99.90;;;;;;5043904;28;20166;-83
2022/01/02 06:13:32;;;;;;;7.80;2.75;;;11.70;99.90;;;;;;5034769;28;20045;-82
2022/01/02 06:15:57;;;;;;;6.07;2.65;;;11.30;99.90;;;;;;5041283;28;20037;-83
2022/01/02 06:18:23;;;;;;;6.97;2.83;;;11.30;99.90;;;;;;5022620;28;20057;-83
2022/01/02 06:20:49;;;;;;;8.57;3.00;;;11.70;99.90;;;;;;5039868;28;20124;-83
2022/01/02 06:23:16;;;;;;;5.93;2.55;;;11.40;99.90;;;;;;5022339;28;20045;-83
2022/01/02 06:25:43;;;;;;;5.20;2.28;;;11.70;99.90;;;;;;5040105;28;20041;-83
2022/01/02 06:28:09;;;;;;;8.63;3.00;;;11.30;99.90;;;;;;5022458;28;20095;-83
2022/01/02 06:30:35;;;;;;;9.15;2.90;;;11.30;99.90;;;;;;5039962;28;20056;-83
2022/01/02 06:33:01;;;;;;;8.55;3.80;;;11.40;99.90;;;;;;5041447;28;20029;-83
2022/01/02 06:35:29;;;;;;;10.07;3.15;;;11.90;99.90;;;;;;5026288;28;20056;-83
2022/01/02 06:37:56;;;;;;;6.90;2.20;;;12.00;99.90;;;;;;5042616;28;20491;-83
2022/01/02 06:40:23;;;;;;;8.00;3.35;;;11.40;99.90;;;;;;5027873;28;20040;-83
2022/01/02 06:42:49;;;;;;;10.65;2.63;;;11.70;99.90;;;;;;5043381;28;20111;-83
2022/01/02 06:45:15;;;;;;;7.28;1.85;;;11.60;99.90;;;;;;5034228;28;20037;-83
2022/01/02 06:47:41;;;;;;;9.45;2.42;;;11.40;99.90;;;;;;5025421;28;20120;-82
2022/01/02 06:50:07;;;;;;;6.93;2.00;;;11.50;99.90;;;;;;5042782;28;20048;-83
2022/01/02 06:52:33;;;;;;;7.22;2.55;;;11.50;99.90;;;;;;5024142;28;20041;-82
2022/01/02 06:54:59;;;;;;;13.63;2.90;;;11.70;99.90;;;;;;5040734;28;20106;-83
2022/01/02 06:57:24;;;;;;;8.57;3.05;;;12.00;99.90;;;;;;5022083;28;20049;-83
2022/01/02 06:59:50;;;;;;;5.45;1.83;;;11.70;99.90;;;;;;5039951;28;20045;-83
2022/01/02 07:02:17;;;;;;;6.10;1.98;;;11.50;99.90;;;;;;5039464;28;20052;-83
2022/01/02 07:04:43;;;;;;;5.72;2.10;;;11.90;99.90;;;;;;5024890;28;20075;-83
2022/01/02 07:07:09;;;;;;;6.68;2.40;;;11.60;99.90;;;;;;5042882;28;20138;-83
2022/01/02 07:09:35;;;;;;;10.18;2.25;;;11.60;99.90;;;;;;5041265;28;20398;-83
2022/01/02 07:12:01;;;;;;;5.57;1.83;;;12.10;99.90;;;;;;5036382;28;20041;-83
2022/01/02 07:14:27;;;;;;;8.63;2.25;;;11.70;99.90;;;;;;5042522;28;20045;-82
2022/01/02 07:16:57;;;;;;;5.38;1.50;;;11.70;99.90;;;;;;5031522;28;20040;-82
2022/01/02 07:19:24;;;;;;;4.97;2.08;;;11.60;99.90;;;;;;5005540;28;20129;-83
2022/01/02 07:21:50;;;;;;;8.55;2.25;;;12.00;99.90;;;;;;5042440;28;20049;-83
2022/01/02 07:24:16;;;;;;;5.70;1.60;;;11.70;99.90;;;;;;5043120;28;20041;-83
2022/01/02 07:26:41;;;;;;;7.38;1.40;;;12.10;99.90;;;;;;5040912;28;20045;-83
2022/01/02 07:29:07;;;;;;;3.60;1.60;;;11.70;99.90;;;;;;5040971;28;20037;-82
2022/01/02 07:31:33;;;;;;;6.22;1.73;;;11.70;99.90;;;;;;5035246;28;20065;-83
2022/01/02 07:33:59;;;;;;;5.47;1.50;;;11.80;99.90;;;;;;5028530;28;20086;-82
2022/01/02 07:36:24;;;;;;;10.23;1.55;;;12.00;99.90;;;;;;5044368;28;20045;-82
2022/01/02 07:38:50;;;;;;;6.28;1.35;;;12.40;99.90;;;;;;5026515;28;20474;-83
2022/01/02 07:41:16;;;;;;;7.38;1.40;;;12.00;99.90;;;;;;5041616;28;20037;-82
2022/01/02 07:43:42;;;;;;;8.50;1.65;;;12.00;99.90;;;;;;5043203;28;20057;-82
2022/01/02 07:46:07;;;;;;;6.80;1.75;;;11.90;99.90;;;;;;5042208;28;20052;-83
2022/01/02 07:48:33;;;;;;;7.90;2.10;;;11.90;99.90;;;;;;5007842;28;20445;-82
2022/01/02 07:50:59;;;;;;;7.72;1.42;;;12.00;99.90;;;;;;5046094;28;20550;-82
2022/01/02 07:53:24;;;;;;;3.03;1.30;;;12.50;99.90;;;;;;5042214;28;20045;-82
2022/01/02 07:55:50;;;;;;;5.80;1.38;;;11.90;99.90;;;;;;5037845;28;20091;-82
2022/01/02 07:58:16;;;;;;;5.88;1.35;;;12.00;99.90;;;;;;5046311;28;20381;-82
2022/01/02 08:00:42;;;;;;;8.93;1.40;;;11.90;99.90;;;;;;5045773;28;20539;-82
2022/01/02 08:03:08;;;;;;;5.25;1.55;;;12.00;99.90;;;;;;5043182;28;20147;-82
2022/01/02 08:05:33;;;;;;;4.57;1.50;;;12.00;99.90;;;;;;5024974;28;20125;-82
2022/01/02 08:07:59;;;;;;;4.63;1.77;;;12.10;99.90;;;;;;5025285;28;20050;-83
2022/01/02 08:10:26;;;;;;;4.65;1.20;;;12.10;99.90;;;;;;5024252;28;20099;-82
2022/01/02 08:12:52;;;;;;;6.95;1.42;;;12.40;99.90;;;;;;5042677;28;20041;-82
2022/01/02 08:15:18;;;;;;;2.10;1.25;;;12.30;99.90;;;;;;5011402;28;20080;-82
2022/01/02 08:17:44;;;;;;;5.38;1.45;;;12.00;99.90;;;;;;5046003;28;20048;-83
2022/01/02 08:20:10;;;;;;;5.45;1.50;;;12.00;99.90;;;;;;5026266;28;20049;-83
2022/01/02 08:22:36;;;;;;;4.60;1.42;;;12.40;99.90;;;;;;5033559;28;20376;-82
2022/01/02 08:25:03;;;;;;;4.95;1.75;;;11.80;99.90;;;;;;5011009;28;20048;-83
2022/01/02 08:27:29;;;;;;;4.97;1.52;;;12.00;99.90;;;;;;5031867;28;20118;-84
2022/01/02 08:29:55;;;;;;;7.68;2.10;;;11.90;99.90;;;;;;5042775;28;20069;-83
2022/01/02 08:32:21;;;;;;;9.80;2.13;;;11.90;99.90;;;;;;5045936;28;20092;-84
2022/01/02 08:34:47;;;;;;;5.35;1.60;;;11.90;99.90;;;;;;5028033;28;20047;-83
2022/01/02 08:37:15;;;;;;;7.40;1.67;;;11.80;99.90;;;;;;5044516;28;20037;-83
2022/01/02 08:39:44;;;;;;;6.22;1.95;;;12.10;99.90;;;;;;5023394;28;20049;-84
2022/01/02 08:42:12;;;;;;;4.82;1.67;;;11.70;99.90;;;;;;5023323;28;20041;-81
2022/01/02 08:44:39;;;;;;;7.78;1.90;;;11.40;99.90;;;;;;5034539;28;20440;-82
2022/01/02 08:47:05;;;;;;;5.28;1.70;;;12.00;99.90;;;;;;5041878;28;20041;-82
2022/01/02 08:49:31;;;;;;;7.30;1.95;;;11.60;99.90;;;;;;5036030;28;20045;-80
2022/01/02 08:51:57;;;;;;;8.73;2.45;;;12.00;99.90;;;;;;5021710;28;20115;-83
2022/01/02 08:54:23;;;;;;;5.50;1.70;;;11.60;99.90;;;;;;5041725;28;20033;-82
2022/01/02 08:56:48;;;;;;;6.00;1.88;;;11.50;99.90;;;;;;5023902;28;20049;-80
2022/01/02 08:59:14;;;;;;;6.32;1.88;;;12.00;99.90;;;;;;5042752;28;20044;-82
2022/01/02 09:01:40;;;;;;;5.13;1.83;;;12.10;99.90;;;;;;5041506;28;20038;-82
2022/01/02 09:04:06;;;;;;;3.90;1.52;;;12.10;99.90;;;;;;5041194;28;20049;-82
2022/01/02 09:06:31;;;;;;;5.22;1.88;;;11.70;99.90;;;;;;5042606;28;20043;-81
2022/01/02 09:08:57;;;;;;;4.22;1.60;;;11.50;99.90;;;;;;5044916;28;20437;-82
2022/01/02 09:11:23;;;;;;;4.30;1.67;;;12.00;99.90;;;;;;5044482;28;20128;-83
2022/01/02 09:13:49;;;;;;;5.18;1.75;;;11.50;99.90;;;;;;5041741;28;20037;-81
2022/01/02 09:16:15;;;;;;;2.47;1.38;;;11.40;99.90;;;;;;5023394;28;20056;-82
2022/01/02 09:18:41;;;;;;;4.28;1.98;;;11.60;99.90;;;;;;5041732;28;20041;-82
2022/01/02 09:21:06;;;;;;;2.47;1.65;;;11.50;99.90;;;;;;5045169;28;20060;-83
2022/01/02 09:23:32;;;;;;;2.92;1.60;;;11.40;99.90;;;;;;5043774;28;20044;-83
2022/01/02 09:25:58;;;;;;;2.17;1.05;;;11.90;99.90;;;;;;5021524;28;20041;-81
2022/01/02 09:28:23;;;;;;;3.47;1.27;;;11.60;99.90;;;;;;5022857;28;20136;-81
2022/01/02 09:30:49;;;;;;;1.50;0.95;;;11.50;99.90;;;;;;5038181;28;20458;-80
2022/01/02 09:33:15;;;;;;;2.33;1.15;;;11.60;99.90;;;;;;5041029;28;20034;-82
2022/01/02 09:35:41;;;;;;;4.20;1.50;;;11.60;99.90;;;;;;5041852;28;20479;-81
2022/01/02 09:38:09;;;;;;;1.70;1.30;;;11.70;99.90;;;;;;5044427;28;20124;-81
2022/01/02 09:40:35;;;;;;;2.40;1.35;;;11.70;99.90;;;;;;5044316;28;20049;-82
2022/01/02 09:43:02;;;;;;;5.57;1.70;;;11.60;99.90;;;;;;5040479;28;20044;-80
2022/01/02 09:45:31;;;;;;;5.53;2.38;;;11.60;99.90;;;;;;5006890;28;20053;-82
2022/01/02 09:47:58;;;;;;;3.78;1.75;;;11.60;99.90;;;;;;5042837;28;20427;-82
2022/01/02 09:50:24;;;;;;;2.47;1.88;;;12.10;99.90;;;;;;5038615;28;20091;-83
2022/01/02 09:52:50;;;;;;;3.30;1.70;;;11.60;99.90;;;;;;5037463;28;20045;-83
2022/01/02 09:55:16;;;;;;;3.33;1.60;;;11.50;99.90;;;;;;5037130;28;20047;-84
2022/01/02 09:57:43;;;;;;;3.78;1.70;;;11.50;99.90;;;;;;5040481;28;20070;-82
2022/01/02 10:00:09;;;;;;;4.50;2.13;;;11.50;99.90;;;;;;5040353;28;20048;-84
2022/01/02 10:02:55;;;;;;;2.85;1.80;;;11.50;99.90;;;;;;5040801;28;20501;-84
2022/01/02 10:05:24;;;;;;;6.75;2.00;;;11.60;99.90;;;;;;5033879;28;20049;-84
2022/01/02 10:07:52;;;;;;;7.45;2.58;;;11.40;99.90;;;;;;5033227;28;20037;-83
2022/01/02 10:10:18;;;;;;;3.15;2.30;;;11.90;99.90;;;;;;5043913;28;20044;-84
2022/01/02 10:12:44;;;;;;;6.93;2.85;;;12.10;99.90;;;;;;5043771;28;20045;-81
2022/01/02 10:15:22;;;;;;;5.32;2.80;;;11.50;99.90;;;;;;5039628;28;20040;-83
2022/01/02 10:18:00;;;;;;;3.83;2.60;;;11.40;99.90;;;;;;5042762;28;20372;-83
2022/01/02 10:20:47;;;;;;;3.50;2.35;;;11.40;99.90;;;;;;5028400;28;20048;-83
2022/01/02 10:23:19;;;;;;;7.70;3.10;;;11.50;99.90;;;;;;5041900;28;20403;-83
2022/01/02 10:26:03;;;;;;;5.53;3.00;;;11.40;99.90;;;;;;5043608;28;20053;-83
2022/01/02 10:28:36;;;;;;;5.30;3.05;;;11.40;99.90;;;;;;5032769;28;20045;-84
2022/01/02 10:31:08;;;;;;;4.50;2.92;;;11.40;99.90;;;;;;5031699;28;20052;-83
2022/01/02 10:34:01;;;;;;;4.82;3.20;;;11.40;99.90;;;;;;5033159;28;20526;-82
2022/01/02 10:36:30;;;;;;;6.07;3.90;;;11.40;99.90;;;;;;5045023;28;20033;-84
2022/01/02 10:39:15;;;;;;;7.78;2.83;;;11.40;99.90;;;;;;5022176;28;20442;-85
2022/01/02 10:41:46;;;;;;;6.50;3.28;;;11.80;99.90;;;;;;5022239;28;20103;-83
2022/01/02 10:44:26;;;;;;;4.75;3.10;;;11.40;99.90;;;;;;5040100;28;20056;-83
2022/01/02 10:47:21;;;;;;;6.45;3.13;;;11.40;99.90;;;;;;5043377;28;20047;-85
2022/01/02 10:50:04;;;;;;;12.40;3.67;;;11.50;99.90;;;;;;5008531;28;20041;-81
2022/01/02 10:52:41;;;;;;;8.18;3.60;;;11.50;99.90;;;;;;5041899;28;20446;-83
2022/01/02 10:55:26;;;;;;;5.75;3.78;;;11.40;99.90;;;;;;5022161;28;20056;-83
2022/01/02 10:57:55;;;;;;;9.27;3.97;;;11.50;99.90;;;;;;5033898;28;20030;-84
2022/01/02 11:00:23;;;;;;;7.38;3.63;;;11.40;99.90;;;;;;5040218;28;20048;-83
2022/01/02 11:02:49;;;;;;;8.35;3.83;;;11.40;99.90;;;;;;5043222;28;20051;-84
2022/01/02 11:05:18;;;;;;;10.80;4.25;;;11.40;99.90;;;;;;5045872;28;20391;-82
2022/01/02 11:07:46;;;;;;;13.90;4.88;;;11.50;99.90;;;;;;5043909;28;20041;-83
2022/01/02 11:10:33;;;;;;;9.45;2.95;;;11.90;99.90;;;;;;5026228;28;20056;-82
2022/01/02 11:12:59;;;;;;;8.90;2.80;;;11.60;99.90;;;;;;5035563;28;20044;-83
2022/01/02 11:15:27;;;;;;;8.50;2.53;;;11.60;99.90;;;;;;5044768;28;20396;-84
2022/01/02 11:17:53;;;;;;;5.32;2.28;;;11.50;99.90;;;;;;5029096;28;20112;-83
2022/01/02 11:20:22;;;;;;;10.65;3.20;;;11.50;99.90;;;;;;5044302;28;20041;-84
2022/01/02 11:23:00;;;;;;;8.93;2.70;;;12.00;99.90;;;;;;5015524;28;20076;-84
2022/01/02 11:25:42;;;;;;;9.43;2.22;;;11.50;99.90;;;;;;5045387;28;20532;-82
2022/01/02 11:28:25;;;;;;;9.88;2.40;;;11.20;99.90;;;;;;5043484;28;20038;-82
2022/01/02 11:30:51;;;;;;;8.18;2.13;;;11.50;99.90;;;;;;5028194;28;20047;-80
2022/01/02 11:33:19;;;;;;;5.35;2.05;;;11.40;99.90;;;;;;5043025;28;20037;-80
2022/01/02 11:35:49;;;;;;;12.13;2.58;;;11.50;99.90;;;;;;5046174;28;20100;-80
2022/01/02 11:38:17;;;;;;;7.07;2.22;;;11.60;99.90;;;;;;5021782;28;20133;-82
2022/01/02 11:40:58;;;;;;;5.78;2.30;;;11.90;99.90;;;;;;5034982;28;20049;-81
2022/01/02 11:43:36;;;;;;;11.70;2.60;;;12.00;99.90;;;;;;5043083;28;20103;-80
2022/01/02 11:46:16;;;;;;;9.32;2.22;;;11.60;99.90;;;;;;5046662;28;20037;-80
2022/01/02 11:48:42;;;;;;;9.20;1.80;;;11.60;99.90;;;;;;5038778;28;20046;-85
2022/01/02 11:51:08;;;;;;;10.10;2.42;;;11.80;99.90;;;;;;5040773;28;20372;-82
2022/01/02 11:53:35;;;;;;;7.93;1.90;;;11.60;99.90;;;;;;5037238;28;20049;-79
2022/01/02 11:56:02;;;;;;;9.35;2.53;;;12.20;99.90;;;;;;5042936;28;20033;-81
2022/01/02 11:58:49;;;;;;;6.00;1.90;;;11.80;99.90;;;;;;5043182;28;20175;-84
2022/01/02 12:01:44;;;;;;;8.07;2.00;;;11.60;99.90;;;;;;5029560;28;20041;-82
2022/01/02 12:04:11;;;;;;;8.48;2.00;;;11.60;99.90;;;;;;5029609;28;20045;-81
2022/01/02 12:06:37;;;;;;;8.57;1.88;;;11.50;99.90;;;;;;5025083;28;20080;-81
2022/01/02 12:09:25;;;;;;;10.30;2.28;;;11.70;99.90;;;;;;5046235;28;20076;-83
2022/01/02 12:11:59;;;;;;;6.15;2.10;;;11.60;99.90;;;;;;5025094;28;20048;-82
2022/01/02 12:14:25;;;;;;;13.05;2.58;;;11.50;99.90;;;;;;5042276;28;20041;-82
2022/01/02 12:16:58;;;;;;;7.32;2.13;;;11.60;99.90;;;;;;5044589;28;20030;-81
2022/01/02 12:19:25;;;;;;;9.10;2.10;;;11.50;99.90;;;;;;5046176;28;20041;-82
2022/01/02 12:22:11;;;;;;;8.02;1.63;;;11.50;99.90;;;;;;5042217;28;20046;-82
2022/01/02 12:24:37;;;;;;;7.45;1.63;;;11.40;99.90;;;;;;5046089;28;20563;-82
2022/01/02 12:27:14;;;;;;;15.30;2.28;;;11.50;99.90;;;;;;5034821;28;20037;-83
2022/01/02 12:29:40;;;;;;;7.82;2.20;;;11.50;99.90;;;;;;5042405;28;20123;-80
2022/01/02 12:32:07;;;;;;;9.48;2.10;;;11.60;99.90;;;;;;5035019;28;20069;-83
2022/01/02 12:34:34;;;;;;;14.70;2.05;;;11.40;99.90;;;;;;5042560;28;20053;-86
2022/01/02 12:37:00;;;;;;;7.55;1.20;;;11.40;99.90;;;;;;5044582;28;20033;-80
2022/01/02 12:39:37;;;;;;;8.48;1.45;;;12.00;99.90;;;;;;5045403;28;20103;-82
2022/01/02 12:42:11;;;;;;;14.05;2.08;;;11.50;99.90;;;;;;5042129;28;20045;-82
2022/01/02 12:44:37;;;;;;;9.75;1.30;;;11.60;99.90;;;;;;5041405;28;20095;-80
2022/01/02 12:47:05;;;;;;;8.55;2.08;;;12.10;99.90;;;;;;5044597;28;20041;-82
2022/01/02 12:49:34;;;;;;;7.93;1.67;;;11.60;99.90;;;;;;5039113;28;20446;-82
2022/01/02 12:52:06;;;;;;;9.15;1.58;;;11.50;99.90;;;;;;5038341;28;20427;-79
2022/01/02 12:54:37;;;;;;;4.88;1.17;;;11.60;99.90;;;;;;5027648;28;20052;-80
2022/01/02 12:57:09;;;;;;;6.38;1.33;;;11.50;99.90;;;;;;5016966;28;20041;-79
2022/01/02 12:59:42;;;;;;;6.90;1.30;;;11.50;99.90;;;;;;5042665;28;20046;-79